createdAt,value
2022-09-02T00:13:45.964Z,1015.38
2022-09-02T00:14:45.968Z,1015.36
2022-09-02T00:15:45.978Z,1015.36
2022-09-02T00:16:46.074Z,1015.39
2022-09-02T00:17:45.995Z,1015.37
2022-09-02T00:18:46.107Z,1015.38
2022-09-02T00:19:46.023Z,1015.34
2022-09-02T00:20:46.024Z,1015.37
2022-09-02T00:21:46.043Z,1015.37
2022-09-02T00:22:46.044Z,1015.38
2022-09-02T00:23:46.055Z,1015.38
2022-09-02T00:24:46.062Z,1015.40
2022-09-02T00:25:46.073Z,1015.40
2022-09-02T00:26:46.093Z,1015.40
2022-09-02T00:27:46.093Z,1015.39
2022-09-02T00:28:55.737Z,1015.38
2022-09-02T00:29:46.120Z,1015.36
2022-09-02T00:30:46.120Z,1015.34
2022-09-02T00:31:46.240Z,1015.36
2022-09-02T00:32:46.139Z,1015.37
2022-09-02T00:33:46.150Z,1015.36
2022-09-02T00:34:46.166Z,1015.35
2022-09-02T00:35:46.178Z,1015.35
2022-09-02T00:36:46.184Z,1015.37
2022-09-02T00:37:46.188Z,1015.35
2022-09-02T00:38:46.203Z,1015.38
2022-09-02T00:39:46.216Z,1015.35
2022-09-02T00:40:46.335Z,1015.34
2022-09-02T00:41:46.233Z,1015.34
2022-09-02T00:42:46.243Z,1015.31
2022-09-02T00:43:46.245Z,1015.35
2022-09-02T00:44:46.260Z,1015.34
2022-09-02T00:45:46.278Z,1015.33
2022-09-02T00:46:46.274Z,1015.37
2022-09-02T00:47:46.283Z,1015.33
2022-09-02T00:48:46.301Z,1015.33
2022-09-02T00:49:46.324Z,1015.30
2022-09-02T00:50:46.321Z,1015.28
2022-09-02T00:51:46.321Z,1015.30
2022-09-02T00:52:46.331Z,1015.30
2022-09-02T00:53:46.343Z,1015.28
2022-09-02T00:54:46.350Z,1015.31
2022-09-02T00:55:46.367Z,1015.28
2022-09-02T00:56:46.370Z,1015.29
2022-09-02T00:57:46.386Z,1015.31
2022-09-02T00:58:46.390Z,1015.31
2022-09-02T00:59:46.405Z,1015.28
2022-09-02T01:00:46.557Z,1015.33
2022-09-02T01:01:46.696Z,1015.31
2022-09-02T01:02:46.428Z,1015.30
2022-09-02T01:03:46.439Z,1015.34
2022-09-02T01:04:46.455Z,1015.35
2022-09-02T01:05:46.462Z,1015.32
2022-09-02T01:06:46.466Z,1015.29
2022-09-02T01:07:46.483Z,1015.30
2022-09-02T01:08:46.485Z,1015.30
2022-09-02T01:09:46.500Z,1015.30
2022-09-02T01:10:46.511Z,1015.29
2022-09-02T01:11:46.525Z,1015.33
2022-09-02T01:12:46.533Z,1015.26
2022-09-02T01:13:46.545Z,1015.25
2022-09-02T01:14:46.549Z,1015.25
2022-09-02T01:15:46.564Z,1015.28
2022-09-02T01:16:46.612Z,1015.27
2022-09-02T01:17:46.570Z,1015.29
2022-09-02T01:18:46.588Z,1015.24
2022-09-02T01:19:46.598Z,1015.27
2022-09-02T01:20:46.607Z,1015.21
2022-09-02T01:21:46.609Z,1015.24
2022-09-02T01:22:46.620Z,1015.23
2022-09-02T01:23:46.628Z,1015.19
2022-09-02T01:24:46.639Z,1015.21
2022-09-02T01:25:46.648Z,1015.20
2022-09-02T01:26:46.661Z,1015.19
2022-09-02T01:27:46.676Z,1015.20
2022-09-02T01:28:46.676Z,1015.19
2022-09-02T01:29:46.694Z,1015.18
2022-09-02T01:30:46.703Z,1015.14
2022-09-02T01:31:46.818Z,1015.15
2022-09-02T01:32:46.716Z,1015.13
2022-09-02T01:33:46.724Z,1015.14
2022-09-02T01:34:46.743Z,1015.10
2022-09-02T01:35:46.744Z,1015.11
2022-09-02T01:36:46.752Z,1015.10
2022-09-02T01:37:54.708Z,1015.09
2022-09-02T01:38:46.782Z,1015.08
2022-09-02T01:39:46.790Z,1015.10
2022-09-02T01:40:46.860Z,1015.07
2022-09-02T01:41:46.808Z,1015.07
2022-09-02T01:42:46.820Z,1015.09
2022-09-02T01:43:46.829Z,1015.11
2022-09-02T01:44:46.837Z,1015.10
2022-09-02T01:45:46.840Z,1015.06
2022-09-02T01:46:47.006Z,1015.09
2022-09-02T01:47:46.860Z,1015.05
2022-09-02T01:48:46.867Z,1015.04
2022-09-02T01:49:46.894Z,1015.03
2022-09-02T01:50:47.121Z,1015.06
2022-09-02T01:51:46.906Z,1015.05
2022-09-02T01:52:46.912Z,1015.03
2022-09-02T01:53:46.916Z,1015.02
2022-09-02T01:54:46.925Z,1015.03
2022-09-02T01:55:46.936Z,1015.03
2022-09-02T01:56:46.945Z,1015.00
2022-09-02T01:57:46.962Z,1015.04
2022-09-02T01:58:46.964Z,1015.00
2022-09-02T01:59:46.998Z,1014.99
2022-09-02T02:01:47.115Z,1014.97
2022-09-02T02:02:47.002Z,1014.94
2022-09-02T02:03:47.013Z,1014.95
2022-09-02T02:04:47.021Z,1014.89
2022-09-02T02:05:47.038Z,1014.94
2022-09-02T02:06:47.042Z,1014.92
2022-09-02T02:07:47.050Z,1014.92
2022-09-02T02:08:47.058Z,1014.90
2022-09-02T02:09:47.074Z,1014.90
2022-09-02T02:10:47.079Z,1014.91
2022-09-02T02:11:47.098Z,1014.96
2022-09-02T02:12:47.096Z,1014.98
2022-09-02T02:13:47.111Z,1014.97
2022-09-02T02:14:47.116Z,1014.98
2022-09-02T02:15:47.194Z,1014.96
2022-09-02T02:16:47.134Z,1014.97
2022-09-02T02:17:47.149Z,1014.97
2022-09-02T02:18:47.154Z,1014.98
2022-09-02T02:19:47.168Z,1015.00
2022-09-02T02:20:47.177Z,1015.00
2022-09-02T02:21:47.188Z,1015.00
2022-09-02T02:22:47.188Z,1014.97
2022-09-02T02:23:47.206Z,1014.98
2022-09-02T02:24:47.214Z,1014.97
2022-09-02T02:25:47.217Z,1014.99
2022-09-02T02:26:47.232Z,1014.99
2022-09-02T02:27:47.244Z,1014.99
2022-09-02T02:28:47.244Z,1014.98
2022-09-02T02:29:47.262Z,1014.97
2022-09-02T02:30:47.264Z,1014.99
2022-09-02T02:31:47.355Z,1014.98
2022-09-02T02:32:47.281Z,1014.98
2022-09-02T02:33:47.292Z,1014.93
2022-09-02T02:34:47.302Z,1014.95
2022-09-02T02:35:47.309Z,1014.96
2022-09-02T02:36:47.326Z,1014.95
2022-09-02T02:37:47.336Z,1014.93
2022-09-02T02:38:47.343Z,1014.94
2022-09-02T02:39:47.354Z,1014.96
2022-09-02T02:40:47.422Z,1014.93
2022-09-02T02:41:47.372Z,1014.90
2022-09-02T02:42:47.374Z,1014.92
2022-09-02T02:43:47.391Z,1014.92
2022-09-02T02:44:47.404Z,1014.88
2022-09-02T02:45:47.406Z,1014.88
2022-09-02T02:46:47.512Z,1014.89
2022-09-02T02:47:47.425Z,1014.87
2022-09-02T02:48:47.432Z,1014.86
2022-09-02T02:49:47.436Z,1014.87
2022-09-02T02:50:47.453Z,1014.87
2022-09-02T02:51:47.456Z,1014.87
2022-09-02T02:52:47.470Z,1014.84
2022-09-02T02:53:47.471Z,1014.84
2022-09-02T02:54:47.480Z,1014.81
2022-09-02T02:55:49.863Z,1014.77
2022-09-02T02:56:47.498Z,1014.82
2022-09-02T02:57:47.508Z,1014.79
2022-09-02T02:58:47.518Z,1014.80
2022-09-02T02:59:47.531Z,1014.79
2022-09-02T03:00:47.532Z,1014.77
2022-09-02T03:01:47.740Z,1014.77
2022-09-02T03:02:47.890Z,1014.79
2022-09-02T03:03:47.568Z,1014.75
2022-09-02T03:04:47.569Z,1014.78
2022-09-02T03:05:47.580Z,1014.76
2022-09-02T03:06:47.594Z,1014.74
2022-09-02T03:07:47.603Z,1014.73
2022-09-02T03:08:47.611Z,1014.72
2022-09-02T03:09:47.619Z,1014.75
2022-09-02T03:10:47.622Z,1014.75
2022-09-02T03:11:47.637Z,1014.77
2022-09-02T03:12:47.651Z,1014.77
2022-09-02T03:13:47.647Z,1014.78
2022-09-02T03:14:47.665Z,1014.75
2022-09-02T03:15:47.725Z,1014.76
2022-09-02T03:16:47.680Z,1014.78
2022-09-02T03:17:47.684Z,1014.76
2022-09-02T03:18:47.698Z,1014.80
2022-09-02T03:19:47.702Z,1014.76
2022-09-02T03:20:47.715Z,1014.80
2022-09-02T03:21:47.716Z,1014.78
2022-09-02T03:22:47.727Z,1014.76
2022-09-02T03:23:47.738Z,1014.76
2022-09-02T03:24:47.744Z,1014.72
2022-09-02T03:25:47.763Z,1014.76
2022-09-02T03:26:47.762Z,1014.75
2022-09-02T03:27:47.769Z,1014.75
2022-09-02T03:28:47.788Z,1014.75
2022-09-02T03:29:47.786Z,1014.74
2022-09-02T03:30:47.798Z,1014.77
2022-09-02T03:31:47.812Z,1014.74
2022-09-02T03:32:47.821Z,1014.71
2022-09-02T03:33:47.828Z,1014.73
2022-09-02T03:34:47.830Z,1014.72
2022-09-02T03:35:47.845Z,1014.69
2022-09-02T03:36:47.848Z,1014.69
2022-09-02T03:37:47.864Z,1014.69
2022-09-02T03:38:47.865Z,1014.67
2022-09-02T03:39:47.874Z,1014.65
2022-09-02T03:40:47.907Z,1014.62
2022-09-02T03:41:47.896Z,1014.59
2022-09-02T03:42:47.903Z,1014.60
2022-09-02T03:43:47.908Z,1014.57
2022-09-02T03:44:47.924Z,1014.62
2022-09-02T03:45:47.987Z,1014.60
2022-09-02T03:46:47.934Z,1014.60
2022-09-02T03:47:47.965Z,1014.64
2022-09-02T03:48:47.949Z,1014.60
2022-09-02T03:49:47.966Z,1014.63
2022-09-02T03:50:47.973Z,1014.64
2022-09-02T03:51:47.986Z,1014.62
2022-09-02T03:52:47.992Z,1014.63
2022-09-02T03:53:47.992Z,1014.66
2022-09-02T03:54:48.010Z,1014.65
2022-09-02T03:55:49.418Z,1014.61
2022-09-02T03:56:48.025Z,1014.59
2022-09-02T03:57:48.035Z,1014.58
2022-09-02T03:58:48.043Z,1014.60
2022-09-02T03:59:48.044Z,1014.58
2022-09-02T04:00:48.052Z,1014.59
2022-09-02T04:01:48.109Z,1014.60
2022-09-02T04:02:50.132Z,1014.61
2022-09-02T04:03:48.078Z,1014.65
2022-09-02T04:04:48.087Z,1014.66
2022-09-02T04:05:48.093Z,1014.64
2022-09-02T04:06:48.104Z,1014.66
2022-09-02T04:07:48.117Z,1014.71
2022-09-02T04:08:48.320Z,1014.70
2022-09-02T04:09:48.138Z,1014.72
2022-09-02T04:10:48.144Z,1014.71
2022-09-02T04:11:48.152Z,1014.69
2022-09-02T04:12:48.159Z,1014.70
2022-09-02T04:13:48.160Z,1014.70
2022-09-02T04:14:48.178Z,1014.71
2022-09-02T04:15:48.424Z,1014.71
2022-09-02T04:16:48.187Z,1014.71
2022-09-02T04:17:48.200Z,1014.72
2022-09-02T04:18:48.207Z,1014.69
2022-09-02T04:19:48.219Z,1014.75
2022-09-02T04:20:48.224Z,1014.74
2022-09-02T04:21:48.228Z,1014.72
2022-09-02T04:22:48.247Z,1014.77
2022-09-02T04:23:48.245Z,1014.75
2022-09-02T04:24:48.260Z,1014.72
2022-09-02T04:25:48.266Z,1014.73
2022-09-02T04:26:48.267Z,1014.78
2022-09-02T04:27:48.277Z,1014.75
2022-09-02T04:28:48.283Z,1014.75
2022-09-02T04:29:48.292Z,1014.77
2022-09-02T04:30:48.354Z,1014.77
2022-09-02T04:31:48.315Z,1014.74
2022-09-02T04:32:48.316Z,1014.73
2022-09-02T04:33:48.328Z,1014.73
2022-09-02T04:34:49.954Z,1014.73
2022-09-02T04:35:48.349Z,1014.76
2022-09-02T04:36:48.360Z,1014.75
2022-09-02T04:37:48.369Z,1014.74
2022-09-02T04:38:48.374Z,1014.75
2022-09-02T04:39:48.375Z,1014.73
2022-09-02T04:40:48.472Z,1014.71
2022-09-02T04:41:48.390Z,1014.72
2022-09-02T04:42:48.398Z,1014.71
2022-09-02T04:43:48.407Z,1014.68
2022-09-02T04:44:48.414Z,1014.69
2022-09-02T04:45:48.480Z,1014.68
2022-09-02T04:46:48.534Z,1014.65
2022-09-02T04:47:48.447Z,1014.67
2022-09-02T04:48:49.660Z,1014.67
2022-09-02T04:49:48.454Z,1014.69
2022-09-02T04:50:48.472Z,1014.68
2022-09-02T04:51:49.280Z,1014.70
2022-09-02T04:52:48.483Z,1014.66
2022-09-02T04:53:48.490Z,1014.67
2022-09-02T04:54:48.496Z,1014.69
2022-09-02T04:55:48.510Z,1014.67
2022-09-02T04:56:48.528Z,1014.68
2022-09-02T04:57:48.519Z,1014.66
2022-09-02T04:58:48.537Z,1014.68
2022-09-02T04:59:48.543Z,1014.71
2022-09-02T05:00:48.546Z,1014.69
2022-09-02T05:01:48.668Z,1014.71
2022-09-02T05:02:48.633Z,1014.70
2022-09-02T05:03:48.577Z,1014.73
2022-09-02T05:04:48.576Z,1014.73
2022-09-02T05:05:48.584Z,1014.74
2022-09-02T05:06:48.593Z,1014.78
2022-09-02T05:07:48.607Z,1014.72
2022-09-02T05:08:48.608Z,1014.75
2022-09-02T05:09:48.616Z,1014.76
2022-09-02T05:10:48.632Z,1014.76
2022-09-02T05:11:48.641Z,1014.76
2022-09-02T05:12:48.648Z,1014.79
2022-09-02T05:13:48.648Z,1014.77
2022-09-02T05:14:48.659Z,1014.79
2022-09-02T05:15:48.722Z,1014.80
2022-09-02T05:16:48.674Z,1014.77
2022-09-02T05:17:48.688Z,1014.77
2022-09-02T05:18:48.691Z,1014.78
2022-09-02T05:19:48.698Z,1014.77
2022-09-02T05:20:48.714Z,1014.82
2022-09-02T05:21:48.717Z,1014.81
2022-09-02T05:22:48.730Z,1014.78
2022-09-02T05:23:48.738Z,1014.84
2022-09-02T05:24:48.747Z,1014.84
2022-09-02T05:25:48.753Z,1014.83
2022-09-02T05:26:48.757Z,1014.84
2022-09-02T05:27:48.770Z,1014.82
2022-09-02T05:28:48.779Z,1014.82
2022-09-02T05:29:48.779Z,1014.77
2022-09-02T05:30:48.845Z,1014.82
2022-09-02T05:31:48.796Z,1014.80
2022-09-02T05:32:48.813Z,1014.82
2022-09-02T05:33:48.815Z,1014.79
2022-09-02T05:34:48.827Z,1014.83
2022-09-02T05:35:49.791Z,1014.82
2022-09-02T05:36:48.844Z,1014.75
2022-09-02T05:37:48.852Z,1014.79
2022-09-02T05:38:48.856Z,1014.75
2022-09-02T05:39:48.868Z,1014.70
2022-09-02T05:40:48.987Z,1014.72
2022-09-02T05:41:48.877Z,1014.74
2022-09-02T05:42:48.895Z,1014.73
2022-09-02T05:43:48.901Z,1014.73
2022-09-02T05:44:48.902Z,1014.72
2022-09-02T05:45:48.983Z,1014.71
2022-09-02T05:46:49.254Z,1014.70
2022-09-02T05:47:48.927Z,1014.74
2022-09-02T05:48:48.936Z,1014.72
2022-09-02T05:49:51.634Z,1014.72
2022-09-02T05:50:50.231Z,1014.71
2022-09-02T05:51:48.962Z,1014.70
2022-09-02T05:52:48.976Z,1014.73
2022-09-02T05:53:48.982Z,1014.69
2022-09-02T05:54:48.986Z,1014.71
2022-09-02T05:55:48.993Z,1014.71
2022-09-02T05:56:49.001Z,1014.74
2022-09-02T05:57:49.018Z,1014.70
2022-09-02T05:58:49.017Z,1014.75
2022-09-02T05:59:49.035Z,1014.77
2022-09-02T06:00:49.041Z,1014.72
2022-09-02T06:01:49.080Z,1014.71
2022-09-02T06:02:49.098Z,1014.74
2022-09-02T06:03:49.060Z,1014.71
2022-09-02T06:04:49.067Z,1014.75
2022-09-02T06:05:49.085Z,1014.70
2022-09-02T06:06:49.093Z,1014.71
2022-09-02T06:07:49.099Z,1014.69
2022-09-02T06:08:49.102Z,1014.74
2022-09-02T06:09:49.109Z,1014.72
2022-09-02T06:10:51.747Z,1014.70
2022-09-02T06:11:49.134Z,1014.71
2022-09-02T06:12:49.135Z,1014.69
2022-09-02T06:13:49.152Z,1014.73
2022-09-02T06:14:49.152Z,1014.71
2022-09-02T06:15:49.172Z,1014.77
2022-09-02T06:16:49.175Z,1014.73
2022-09-02T06:19:36.747Z,1014.72
2022-09-02T06:20:36.754Z,1014.74
2022-09-02T06:21:36.756Z,1014.76
2022-09-02T06:22:36.771Z,1014.73
2022-09-02T06:23:36.781Z,1014.73
2022-09-02T06:24:36.788Z,1014.74
2022-09-02T06:25:36.799Z,1014.71
2022-09-02T06:26:36.798Z,1014.74
2022-09-02T06:27:36.806Z,1014.74
2022-09-02T06:28:36.814Z,1014.72
2022-09-02T06:29:36.825Z,1014.71
2022-09-02T06:30:36.935Z,1014.70
2022-09-02T06:31:36.848Z,1014.76
2022-09-02T06:32:36.854Z,1014.72
2022-09-02T06:33:36.864Z,1014.68
2022-09-02T06:34:36.873Z,1014.73
2022-09-02T06:35:36.881Z,1014.71
2022-09-02T06:36:36.885Z,1014.70
2022-09-02T06:37:36.898Z,1014.69
2022-09-02T06:38:36.931Z,1014.70
2022-09-02T06:39:36.915Z,1014.71
2022-09-02T06:40:36.961Z,1014.69
2022-09-02T06:41:36.934Z,1014.67
2022-09-02T06:42:36.936Z,1014.67
2022-09-02T06:43:42.777Z,1014.63
2022-09-02T06:44:36.965Z,1014.72
2022-09-02T06:45:36.961Z,1014.69
2022-09-02T06:46:37.038Z,1014.71
2022-09-02T06:47:36.986Z,1014.70
2022-09-02T06:49:36.994Z,1014.72
2022-09-02T06:51:19.562Z,1014.72
2022-09-02T06:52:19.557Z,1014.75
2022-09-02T06:53:19.630Z,1014.72
2022-09-02T06:54:19.755Z,1014.76
2022-09-02T06:55:19.583Z,1014.76
2022-09-02T06:56:19.592Z,1014.74
2022-09-02T06:57:19.601Z,1014.75
2022-09-02T06:58:19.614Z,1014.73
2022-09-02T06:59:19.627Z,1014.76
2022-09-02T07:00:19.626Z,1014.72
2022-09-02T07:01:21.153Z,1014.75
2022-09-02T07:02:19.648Z,1014.76
2022-09-02T07:03:19.700Z,1014.79
2022-09-02T07:04:19.667Z,1014.76
2022-09-02T07:05:19.669Z,1014.73
2022-09-02T07:06:19.687Z,1014.76
2022-09-02T07:07:19.693Z,1014.78
2022-09-02T07:08:19.704Z,1014.74
2022-09-02T07:09:19.708Z,1014.73
2022-09-02T07:10:19.722Z,1014.78
2022-09-02T07:11:19.730Z,1014.77
2022-09-02T07:12:22.555Z,1014.79
2022-09-02T07:13:19.760Z,1014.78
2022-09-02T07:14:19.750Z,1014.74
2022-09-02T07:15:19.764Z,1014.74
2022-09-02T07:16:26.694Z,1014.75
2022-09-02T07:17:19.774Z,1014.71
2022-09-02T07:18:19.791Z,1014.75
2022-09-02T07:19:20.859Z,1014.73
2022-09-02T07:20:19.812Z,1014.74
2022-09-02T07:21:19.811Z,1014.77
2022-09-02T07:22:19.821Z,1014.76
2022-09-02T07:23:19.881Z,1014.73
2022-09-02T07:24:19.841Z,1014.81
2022-09-02T07:25:19.844Z,1014.73
2022-09-02T07:26:19.852Z,1014.72
2022-09-02T07:27:19.861Z,1014.75
2022-09-02T07:28:19.870Z,1014.77
2022-09-02T07:29:19.888Z,1014.75
2022-09-02T07:30:22.508Z,1014.74
2022-09-02T07:31:19.947Z,1014.73
2022-09-02T07:32:19.916Z,1014.76
2022-09-02T07:33:19.934Z,1014.71
2022-09-02T07:34:19.927Z,1014.77
2022-09-02T07:35:19.939Z,1014.74
2022-09-02T07:36:19.946Z,1014.74
2022-09-02T07:37:19.949Z,1014.75
2022-09-02T07:38:19.962Z,1014.74
2022-09-02T07:39:19.966Z,1014.75
2022-09-02T07:40:22.698Z,1014.73
2022-09-02T07:41:19.984Z,1014.80
2022-09-02T07:42:20.099Z,1014.80
2022-09-02T07:43:20.057Z,1014.78
2022-09-02T07:44:20.025Z,1014.76
2022-09-02T07:45:20.021Z,1014.77
2022-09-02T07:46:20.110Z,1014.78
2022-09-02T07:47:20.044Z,1014.77
2022-09-02T07:49:02.591Z,1014.80
2022-09-02T07:50:20.796Z,1014.75
2022-09-02T07:51:02.615Z,1014.70
2022-09-02T07:52:02.622Z,1014.74
2022-09-02T07:53:02.627Z,1014.78
2022-09-02T07:54:02.645Z,1014.74
2022-09-02T07:55:02.646Z,1014.77
2022-09-02T07:56:02.658Z,1014.83
2022-09-02T07:57:02.669Z,1014.85
2022-09-02T07:58:02.669Z,1014.90
2022-09-02T07:59:02.680Z,1014.83
2022-09-02T08:00:03.902Z,1014.82
2022-09-02T08:01:02.734Z,1014.74
2022-09-02T08:02:02.794Z,1014.73
2022-09-02T08:03:02.889Z,1014.74
2022-09-02T08:04:05.628Z,1014.68
2022-09-02T08:05:02.748Z,1014.71
2022-09-02T08:06:03.550Z,1014.71
2022-09-02T08:07:05.374Z,1014.75
2022-09-02T08:08:02.762Z,1014.73
2022-09-02T08:09:02.770Z,1014.79
2022-09-02T08:10:02.785Z,1014.78
2022-09-02T08:11:02.791Z,1014.76
2022-09-02T08:12:02.795Z,1014.74
2022-09-02T08:13:02.815Z,1014.79
2022-09-02T08:14:02.816Z,1014.80
2022-09-02T08:15:02.825Z,1014.86
2022-09-02T08:16:02.843Z,1014.85
2022-09-02T08:17:02.842Z,1014.84
2022-09-02T08:18:02.859Z,1014.84
2022-09-02T08:19:02.869Z,1014.82
2022-09-02T08:20:02.869Z,1014.82
2022-09-02T08:21:02.881Z,1014.90
2022-09-02T08:22:02.898Z,1014.92
2022-09-02T08:23:11.699Z,1014.89
2022-09-02T08:24:02.917Z,1014.90
2022-09-02T08:25:55.491Z,1014.85
2022-09-02T08:26:55.497Z,1014.82
2022-09-02T08:28:55.515Z,1014.87
2022-09-02T08:29:55.519Z,1014.79
2022-09-02T08:30:55.535Z,1014.81
2022-09-02T08:31:55.561Z,1014.78
2022-09-02T08:32:55.549Z,1014.74
2022-09-02T08:33:59.595Z,1014.73
2022-09-02T08:34:55.567Z,1014.68
2022-09-02T08:35:55.576Z,1014.65
2022-09-02T08:36:56.854Z,1014.67
2022-09-02T08:37:55.607Z,1014.66
2022-09-02T08:38:55.606Z,1014.66
2022-09-02T08:39:55.623Z,1014.64
2022-09-02T08:43:21.491Z,1014.61
2022-09-02T08:44:24.938Z,1014.59
2022-09-02T08:45:21.514Z,1014.56
2022-09-02T08:46:24.147Z,1014.56
2022-09-02T08:47:21.539Z,1014.52
2022-09-02T08:48:21.559Z,1014.50
2022-09-02T08:49:25.610Z,1014.54
2022-09-02T08:50:21.579Z,1014.54
2022-09-02T08:51:21.599Z,1014.52
2022-09-02T08:52:21.608Z,1014.52
2022-09-02T08:54:09.191Z,1014.58
2022-09-02T08:55:09.205Z,1014.52
2022-09-02T08:56:56.774Z,1014.49
2022-09-02T08:57:57.635Z,1014.40
2022-09-02T08:58:57.024Z,1014.42
2022-09-02T08:59:56.834Z,1014.42
2022-09-02T09:00:56.899Z,1014.32
2022-09-02T09:01:56.866Z,1014.37
2022-09-02T09:03:00.709Z,1014.35
2022-09-02T09:03:56.899Z,1014.30
2022-09-02T09:04:56.913Z,1014.29
2022-09-02T09:08:22.901Z,1014.24
2022-09-02T10:06:05.621Z,1013.65
2022-09-02T10:07:04.636Z,1013.60
2022-09-02T10:38:03.841Z,1013.48
2022-09-02T10:49:15.640Z,1013.42
2022-09-02T10:50:15.659Z,1013.38
2022-09-02T10:51:15.687Z,1013.38
2022-09-02T10:52:15.703Z,1013.38
2022-09-02T10:53:15.756Z,1013.37
2022-09-02T10:54:15.733Z,1013.39
2022-09-02T10:55:15.751Z,1013.44
2022-09-02T11:17:38.310Z,1013.32
2022-09-02T11:18:38.328Z,1013.32
2022-09-02T11:19:38.346Z,1013.28
2022-09-02T11:20:38.363Z,1013.32
2022-09-02T11:21:38.378Z,1013.21
2022-09-02T11:22:38.398Z,1013.22
2022-09-02T11:23:38.408Z,1013.28
2022-09-02T11:24:39.146Z,1013.24
2022-09-02T11:25:38.448Z,1013.21
2022-09-02T11:26:38.466Z,1013.20
2022-09-02T11:27:42.613Z,1013.17
2022-09-02T11:29:26.059Z,1013.25
2022-09-02T12:34:51.842Z,1012.73
2022-09-02T12:35:51.864Z,1012.64
2022-09-02T12:36:51.873Z,1012.66
2022-09-02T12:37:51.896Z,1012.65
2022-09-02T12:38:51.914Z,1012.64
2022-09-02T12:39:51.923Z,1012.58
2022-09-02T12:40:52.006Z,1012.58
2022-09-02T12:41:51.965Z,1012.55
2022-09-02T12:42:51.976Z,1012.51
2022-09-02T12:43:51.989Z,1012.52
2022-09-02T12:44:52.002Z,1012.47
2022-09-02T12:45:52.027Z,1012.47
2022-09-02T12:46:52.130Z,1012.49
2022-09-02T12:47:52.057Z,1012.46
2022-09-02T12:48:52.075Z,1012.47
2022-09-02T12:49:52.090Z,1012.54
2022-09-02T12:50:52.108Z,1012.53
2022-09-02T12:51:52.115Z,1012.51
2022-09-02T12:52:52.137Z,1012.49
2022-09-02T12:53:52.154Z,1012.51
2022-09-02T12:54:52.170Z,1012.51
2022-09-02T12:55:52.186Z,1012.49
2022-09-02T12:56:52.200Z,1012.46
2022-09-02T12:57:52.208Z,1012.47
2022-09-02T12:58:52.231Z,1012.47
2022-09-02T12:59:52.239Z,1012.44
2022-09-02T13:00:52.259Z,1012.44
2022-09-02T13:01:52.487Z,1012.40
2022-09-02T13:02:52.288Z,1012.41
2022-09-02T13:03:52.309Z,1012.33
2022-09-02T13:04:52.318Z,1012.37
2022-09-02T13:05:52.337Z,1012.34
2022-09-02T13:06:52.355Z,1012.33
2022-09-02T13:07:52.369Z,1012.28
2022-09-02T13:08:52.381Z,1012.31
2022-09-02T13:09:52.400Z,1012.30
2022-09-02T13:10:52.412Z,1012.29
2022-09-02T13:11:52.430Z,1012.32
2022-09-02T13:12:52.448Z,1012.29
2022-09-02T13:13:52.462Z,1012.24
2022-09-02T13:14:52.471Z,1012.28
2022-09-02T13:15:52.543Z,1012.27
2022-09-02T13:16:52.504Z,1012.25
2022-09-02T13:17:52.514Z,1012.27
2022-09-02T13:18:52.532Z,1012.29
2022-09-02T13:19:52.545Z,1012.29
2022-09-02T13:20:56.047Z,1012.22
2022-09-02T13:21:52.576Z,1012.20
2022-09-02T13:22:52.598Z,1012.24
2022-09-02T13:23:52.606Z,1012.23
2022-09-02T13:24:52.706Z,1012.32
2022-09-02T13:25:52.645Z,1012.23
2022-09-02T13:26:52.658Z,1012.32
2022-09-02T13:27:52.676Z,1012.24
2022-09-02T13:28:52.683Z,1012.24
2022-09-02T13:29:52.695Z,1012.26
2022-09-02T13:30:52.751Z,1012.22
2022-09-02T13:31:52.726Z,1012.21
2022-09-02T13:32:52.750Z,1012.16
2022-09-02T13:33:52.764Z,1012.26
2022-09-02T13:34:52.771Z,1012.20
2022-09-02T13:35:52.792Z,1012.14
2022-09-02T13:36:52.802Z,1012.14
2022-09-02T13:37:52.934Z,1012.13
2022-09-02T13:38:52.873Z,1012.11
2022-09-02T13:39:52.854Z,1012.05
2022-09-02T13:40:52.869Z,1012.06
2022-09-02T13:41:52.880Z,1012.02
2022-09-02T13:42:52.904Z,1011.97
2022-09-02T13:43:52.923Z,1012.06
2022-09-02T13:44:52.935Z,1011.97
2022-09-02T14:24:53.664Z,1011.79
2022-09-02T14:25:53.684Z,1011.78
2022-09-02T14:26:53.695Z,1011.80
2022-09-02T14:27:53.713Z,1011.77
2022-09-02T14:28:53.731Z,1011.74
2022-09-02T14:29:53.737Z,1011.72
2022-09-02T14:30:53.790Z,1011.73
2022-09-02T14:39:39.798Z,1011.72
2022-09-02T14:40:39.704Z,1011.74
2022-09-02T14:41:39.719Z,1011.72
2022-09-02T15:53:00.453Z,1011.52
2022-09-02T15:54:00.472Z,1011.56
2022-09-02T15:55:00.489Z,1011.56
2022-09-02T15:56:00.495Z,1011.54
2022-09-02T15:57:00.507Z,1011.61
2022-09-02T15:58:00.528Z,1011.58
2022-09-02T15:59:00.542Z,1011.59
2022-09-02T16:00:00.552Z,1011.58
2022-09-02T16:01:00.602Z,1011.61
2022-09-02T16:02:00.675Z,1011.61
2022-09-02T16:03:00.652Z,1011.56
2022-09-02T16:04:00.608Z,1011.49
2022-09-02T16:05:00.620Z,1011.53
2022-09-02T16:06:00.641Z,1011.50
2022-09-02T16:07:00.656Z,1011.52
2022-09-02T16:08:00.663Z,1011.48
2022-09-02T16:09:53.247Z,1011.48
2022-09-02T16:10:53.261Z,1011.48
2022-09-02T16:11:53.275Z,1011.47
2022-09-02T16:12:53.293Z,1011.45
2022-09-02T16:13:53.303Z,1011.51
2022-09-02T16:14:53.323Z,1011.48
2022-09-02T16:15:53.336Z,1011.44
2022-09-02T16:16:53.395Z,1011.46
2022-09-02T16:17:53.357Z,1011.41
2022-09-02T16:18:53.374Z,1011.46
2022-09-02T16:19:53.393Z,1011.42
2022-09-02T16:20:53.407Z,1011.44
2022-09-02T16:21:53.414Z,1011.44
2022-09-02T16:22:53.434Z,1011.42
2022-09-02T16:23:53.440Z,1011.41
2022-09-02T16:24:53.455Z,1011.48
2022-09-02T16:25:53.469Z,1011.46
2022-09-02T16:26:53.489Z,1011.39
2022-09-02T16:27:53.517Z,1011.44
2022-09-02T16:28:53.517Z,1011.42
2022-09-02T16:29:53.531Z,1011.45
2022-09-02T16:32:14.390Z,1011.41
2022-09-02T16:32:56.140Z,1011.39
2022-09-02T16:33:56.163Z,1011.36
2022-09-02T16:34:56.172Z,1011.36
2022-09-02T16:35:56.179Z,1011.33
2022-09-02T16:36:56.196Z,1011.34
2022-09-02T16:37:56.207Z,1011.33
2022-09-02T16:38:56.223Z,1011.30
2022-09-02T16:39:56.287Z,1011.25
2022-09-02T16:40:56.248Z,1011.26
2022-09-02T16:41:56.261Z,1011.22
2022-09-02T16:42:56.277Z,1011.23
2022-09-02T16:43:56.295Z,1011.26
2022-09-02T16:44:56.301Z,1011.22
2022-09-02T16:45:56.398Z,1011.29
2022-09-02T16:46:56.328Z,1011.22
2022-09-02T16:47:56.347Z,1011.27
2022-09-02T16:48:56.366Z,1011.26
2022-09-02T16:49:56.370Z,1011.25
2022-09-02T16:50:56.389Z,1011.23
2022-09-02T16:51:58.135Z,1011.24
2022-09-02T16:52:56.413Z,1011.19
2022-09-02T16:53:56.428Z,1011.26
2022-09-02T16:54:56.437Z,1011.24
2022-09-02T16:55:56.449Z,1011.22
2022-09-02T16:56:56.468Z,1011.26
2022-09-02T16:57:56.483Z,1011.20
2022-09-02T16:58:56.488Z,1011.20
2022-09-02T16:59:56.498Z,1011.23
2022-09-02T17:00:56.533Z,1011.18
2022-09-02T17:01:56.600Z,1011.17
2022-09-02T17:02:56.540Z,1011.22
2022-09-02T17:03:56.553Z,1011.21
2022-09-02T17:04:56.566Z,1011.25
2022-09-02T17:05:56.581Z,1011.24
2022-09-02T17:06:56.598Z,1011.20
2022-09-02T17:07:56.603Z,1011.25
2022-09-02T17:08:56.616Z,1011.21
2022-09-02T17:09:56.633Z,1011.21
2022-09-02T17:10:56.646Z,1011.21
2022-09-02T17:11:56.657Z,1011.19
2022-09-02T17:12:56.676Z,1011.17
2022-09-02T17:13:56.682Z,1011.18
2022-09-02T17:14:56.694Z,1011.11
2022-09-02T17:15:56.707Z,1011.12
2022-09-02T17:16:56.804Z,1011.12
2022-09-02T17:17:56.741Z,1011.12
2022-09-02T17:18:56.746Z,1011.11
2022-09-02T17:19:56.767Z,1011.08
2022-09-02T17:20:56.772Z,1011.11
2022-09-02T17:21:56.792Z,1011.11
2022-09-02T17:22:56.797Z,1011.13
2022-09-02T17:23:56.808Z,1011.15
2022-09-02T17:24:56.829Z,1011.18
2022-09-02T17:25:56.836Z,1011.11
2022-09-02T17:26:56.857Z,1011.11
2022-09-02T17:27:56.861Z,1011.12
2022-09-02T17:28:56.872Z,1011.16
2022-09-02T17:29:56.889Z,1011.15
2022-09-02T17:30:56.991Z,1011.13
2022-09-02T17:31:56.912Z,1011.17
2022-09-02T17:32:56.936Z,1011.14
2022-09-02T17:33:56.938Z,1011.15
2022-09-02T17:34:56.958Z,1011.11